Flight Track Log - Related Links

Times and Time Zones

All times are in EDT time to prevent confusion due to time zone crossing. See the AWI3602 flight status page for this flight to view local times or setup timezone preferences in your user account.


Time Position Orientation Groundspeed Altitude Reporting Facility
EDT Latitude Longitude Course Direction KTS MPH feet Rate Location/Type
Wed 07:12:30 AM 33.4744 -81.9942 351° North 235 270 3,000  Level Atlanta Center
Wed 07:13:00 AM 33.5745 -81.9982 351° North  Level FlightAware Approximate
Wed 07:13:30 AM 33.5500 -82.0100 350° North 271 312 5,100  Level Atlanta Center
Wed 07:14:00 AM 33.6436 -82.0130 346° North  Level FlightAware Approximate
Wed 07:14:30 AM 33.6233 -82.0231 352° North 276 318 7,300  Level Atlanta Center
Wed 07:15:00 AM 33.7121 -82.0336 346° North  Level FlightAware Approximate
Wed 07:15:30 AM 33.7050 -82.0386 351° North 282 325 9,400  Level Atlanta Center
Wed 07:16:00 AM 33.7807 -82.0528 351° North  Level FlightAware Approximate
Wed 07:16:30 AM 33.7886 -82.0567 350° North 288 331 11,200  Level Atlanta Center
Wed 07:17:00 AM 33.8503 -82.0667 351° North  Level FlightAware Approximate
Wed 07:17:30 AM 33.8703 -82.0747 350° North 294 338 12,900  Level Atlanta Center
Wed 07:18:30 AM 33.9583 -82.0928 350° North 306 352 13,000 50 Climbing Atlanta Center
Wed 07:19:30 AM 34.0358 -82.1086 350° North 306 352 13,000  Level Atlanta Center
Wed 07:20:30 AM 34.1236 -82.1267 350° North 313 360 13,000  Level Atlanta Center
Wed 07:21:30 AM 34.2200 -82.1447 351° North 326 375 13,000 -600 Level Atlanta Center
Wed 07:22:30 AM 34.3089 -82.0822 30° Northeast 345 397 11,800 -1,000 Descending Atlanta Center
Wed 07:23:30 AM 34.3864 -81.9822 47° Northeast 354 407 11,000 -400 Descending Atlanta Center
Wed 07:24:30 AM 34.4619 -81.8872 46° Northeast 374 430 11,000  Level Atlanta Center
Wed 07:25:30 AM 34.5356 -81.7919 47° Northeast 374 430 11,000  Level Atlanta Center
Wed 07:26:11 AM 34.5925 -81.7200 46° Northeast 381 438 11,000  Level Atlanta Center
Wed 07:27:30 AM 34.6883 -81.6036 45° Northeast 373 429 11,000  Level Atlanta Center
Wed 07:27:30 AM 34.6883 -81.6036 45° Northeast 374 430 11,000  Level Atlanta Center
Wed 07:28:24 AM 34.7453 -81.5261 48° Northeast 328 377 11,000  Level Atlanta Center
Wed 07:29:30 AM 34.8144 -81.4406 45° Northeast 325 374 11,000 -476 Level Atlanta Center
Wed 07:30:30 AM 34.8753 -81.3625 46° Northeast 320 368 10,000 -984 Descending Atlanta Center
Wed 07:31:32 AM 34.9381 -81.2769 48° Northeast 303 349 9,000 -500 Descending Atlanta Center
Wed 07:32:30 AM 34.9908 -81.2119 45° Northeast 302 348 9,000  Level Atlanta Center
Wed 07:33:30 AM 35.0497 -81.1364 46° Northeast 302 348 9,000  Level Atlanta Center
Wed 07:34:30 AM 35.1003 -81.0711 47° Northeast 302 348 9,000 -100 Level Atlanta Center
Wed 07:35:30 AM 35.1794 -81.0683 North 276 318 8,800 -1,241 Descending Atlanta Center
Wed 07:36:55 AM 35.2967 -81.0794 356° North 277 319 6,000 -1,890 Descending Atlanta Center
Wed 07:37:56 AM 35.3719 -81.0867 356° North 262 302 4,200 -984 Descending Atlanta Center
Wed 07:38:57 AM 35.4322 -81.0744 North 203 234 4,000 -142 Descending Atlanta Center
Wed 07:40:03 AM 35.4033 -81.0067 118° Southeast 211 243 3,900 -522 Descending Atlanta Center
Wed 07:40:52 AM 35.3628 -80.9725 146° Southeast 213 245 3,000 -764 Descending Atlanta Center
Wed 07:41:53 AM 35.3086 -80.9772 184° South 192 221 2,500 -738 Descending Atlanta Center
Wed 07:42:54 AM 35.2669 -80.9736 176° South 139 160 1,500 -984 Descending Atlanta Center

Login

Don't have an account? Register now (free) for customized features, flight alerts, and more!